WetterOnline ( http://www.wetteronline.de )

Wetter aktuell Esselbach

Aktuelles Wetter: Michelstadt-Vielbrunn (455m)

6-stündlich | Neueste Meldungen
Ortszeit Temperatur Wetter
Mi, 26.09. 8:00 3.3° C leicht bewölkt
Mi, 26.09. 2:00 5.6° C leicht bewölkt
Di, 25.09. 20:00 8.8° C wolkig
Di, 25.09. 14:00 11.3° C leicht bewölkt
Di, 25.09. 8:00 5.1° C wolkenlos
Di, 25.09. 2:00 6.1° C wolkenlos
Mo, 24.09. 20:00 9.4° C bewölkt
Mo, 24.09. 14:00 10.8° C bedeckt
Ortszeit Temperatur Wetter
Mi, 26.09. 10:00 6.0° C wolkenlos
Mi, 26.09. 9:50 6.0° C wolkenlos
Mi, 26.09. 9:40 5.2° C leicht bewölkt
Mi, 26.09. 9:30 4.8° C bewölkt
Mi, 26.09. 9:20 4.8° C bewölkt
Mi, 26.09. 9:10 5.1° C bewölkt
Mi, 26.09. 9:00 4.7° C wolkig
Mi, 26.09. 8:30 3.5° C wolkenlos
Mi, 26.09. 8:00 3.3° C leicht bewölkt
Mi, 26.09. 7:30 2.9° C wolkig
Mi, 26.09. 7:00 3.2° C wolkig
Ortszeit Relative Feuchte Sichtweite
Mi, 26.09. 8:00 81% 65 km
Mi, 26.09. 2:00 72% 70 km
Di, 25.09. 20:00 61% 70 km
Di, 25.09. 14:00 52% 30 km
Di, 25.09. 8:00 92% 20 km
Di, 25.09. 2:00 87% 65 km
Mo, 24.09. 20:00 68% 70 km
Mo, 24.09. 14:00 59% 65 km
Ortszeit Relative Feuchte Sichtweite
Mi, 26.09. 10:00 72% 35 km
Mi, 26.09. 9:50 72% -
Mi, 26.09. 9:40 73% -
Mi, 26.09. 9:30 75% 40 km
Mi, 26.09. 9:20 75% -
Mi, 26.09. 9:10 73% -
Mi, 26.09. 9:00 76% 35 km
Mi, 26.09. 8:30 80% 50 km
Mi, 26.09. 8:00 81% 65 km
Mi, 26.09. 7:30 82% 65 km
Mi, 26.09. 7:00 80% 70 km
Ortszeit Niederschlagsmenge Niederschlagsart
Mi, 26.09. 8:00 0.0 l/m2 in 12 Std. -
Mi, 26.09. 2:00 0.0 l/m2 in 6 Std. -
Di, 25.09. 20:00 0.0 l/m2 in 12 Std. -
Di, 25.09. 14:00 0.0 l/m2 in 6 Std. -
Di, 25.09. 8:00 0.0 l/m2 in 12 Std. -
Di, 25.09. 2:00 0.0 l/m2 in 6 Std. -
Mo, 24.09. 20:00 0.0 l/m2 in 12 Std. -
Mo, 24.09. 14:00 0.0 l/m2 in 6 Std. -
Ortszeit Niederschlagsmenge Niederschlagsart
Mi, 26.09. 10:00 0.0 l/m2 in 1 Std. -
Mi, 26.09. 9:50 keine Meldung -
Mi, 26.09. 9:40 keine Meldung -
Mi, 26.09. 9:30 0.0 l/m2 in 1 Std. -
Mi, 26.09. 9:20 keine Meldung -
Mi, 26.09. 9:10 keine Meldung -
Mi, 26.09. 9:00 0.0 l/m2 in 1 Std. -
Mi, 26.09. 8:30 0.0 l/m2 in 1 Std. -
Mi, 26.09. 8:00 0.0 l/m2 in 1 Std. -
Mi, 26.09. 7:30 0.0 l/m2 in 1 Std. -
Mi, 26.09. 7:00 0.0 l/m2 in 1 Std. -
Ortszeit Stärke Spitze Richtung
km/h Bft. km/h Grad Sektor
Mi, 26.09. 8:00 19 3 26 130° SO
Mi, 26.09. 2:00 17 3 20 130° SO
Di, 25.09. 20:00 9 2 31 90° O
Di, 25.09. 14:00 11 2 29 80° O
Di, 25.09. 8:00 4 1 22 10° N
Di, 25.09. 2:00 17 3 24 320° NW
Mo, 24.09. 20:00 9 2 31 280° W
Mo, 24.09. 14:00 14 3 32 310° NW
Ortszeit Stärke Spitze Richtung
km/h Bft. km/h Grad Sektor
Mi, 26.09. 10:00 17 3 24 120° SO
Mi, 26.09. 9:50 17 3 - 120° SO
Mi, 26.09. 9:40 18 3 - 130° SO
Mi, 26.09. 9:30 14 3 22 130° SO
Mi, 26.09. 9:20 14 3 - 130° SO
Mi, 26.09. 9:10 15 3 - 130° SO
Mi, 26.09. 9:00 14 3 29 130° SO
Mi, 26.09. 8:30 22 4 29 120° SO
Mi, 26.09. 8:00 19 3 26 130° SO
Mi, 26.09. 7:30 18 3 22 120° SO
Mi, 26.09. 7:00 14 3 22 120° SO
Ortszeit Untergrenze Bedeckung Gattung
total tief tief mittel hoch
Mi, 26.09. 8:00 6900 m 3/8 3/8 - - -
Mi, 26.09. 2:00 10500 m 4/8 0/8 - - -
Di, 25.09. 20:00 9000 m 8/8 0/8 - - -
Di, 25.09. 14:00 1290 m 3/8 3/8 - - -
Di, 25.09. 8:00 - 0/8 0/8 - - -
Di, 25.09. 2:00 - 0/8 0/8 - - -
Mo, 24.09. 20:00 2100 m 7/8 7/8 - - -
Mo, 24.09. 14:00 1200 m 8/8 8/8 - - -
Ortszeit Bedeckungsgrad in Achtel und Wolkenuntergrenze
Mi, 26.09. 10:00 keine Wolken
Mi, 26.09. 9:50 keine Wolken
Mi, 26.09. 9:40 2(6600m)
Mi, 26.09. 9:30 6(6900m) 7(7800m) 7(8700m)
Mi, 26.09. 9:20 6(6900m) 7(7800m) 7(8700m)
Mi, 26.09. 9:10 6(6900m) 7(7800m) 7(8400m)
Mi, 26.09. 9:00 6(6600m) 6(8400m) 7(8700m)
Mi, 26.09. 8:30 2(6900m)
Mi, 26.09. 8:00 3(6900m)
Mi, 26.09. 7:30 6(7200m) 7(7800m)
Mi, 26.09. 7:00 7(7500m)
Ortszeit Luftdruck NN (hPa) Tendenz (hPa in 3 Std.)
Mi, 26.09. 8:00 1037 - 0,5
Mi, 26.09. 2:00 1038 - 0,9
Di, 25.09. 20:00 1038 + 0,1
Di, 25.09. 14:00 1039 - 0,2
Di, 25.09. 8:00 1039 + 1,0
Di, 25.09. 2:00 1037 + 0,9
Mo, 24.09. 20:00 1034 + 1,1
Mo, 24.09. 14:00 1033 + 0,4
Ortszeit Luftdruck NN (hPa) Tendenz (hPa in 3 Std.)
Mi, 26.09. 10:00 1036 + 0,4
Mi, 26.09. 9:50 1036 keine Meldung
Mi, 26.09. 9:40 1036 keine Meldung
Mi, 26.09. 9:30 1037 + 0,3
Mi, 26.09. 9:20 1037 keine Meldung
Mi, 26.09. 9:10 1036 keine Meldung
Mi, 26.09. 9:00 1037 + 0,3
Mi, 26.09. 8:30 1037 - 0,2
Mi, 26.09. 8:00 1037 - 0,5
Mi, 26.09. 7:30 1037 - 0,8
Mi, 26.09. 7:00 1037 - 0,8
Ortszeit Schneehöhe (cm)
Mi, 26.09. 8:00 -
Mi, 26.09. 2:00 -
Di, 25.09. 20:00 -
Di, 25.09. 14:00 -
Di, 25.09. 8:00 -
Di, 25.09. 2:00 -
Mo, 24.09. 20:00 -
Mo, 24.09. 14:00 -
Ortszeit Schneehöhe (cm)
Mi, 26.09. 10:00 -
Mi, 26.09. 9:50 -
Mi, 26.09. 9:40 -
Mi, 26.09. 9:30 -
Mi, 26.09. 9:20 -
Mi, 26.09. 9:10 -
Mi, 26.09. 9:00 -
Mi, 26.09. 8:30 -
Mi, 26.09. 8:00 -
Mi, 26.09. 7:30 -
Mi, 26.09. 7:00 -
Link zu dieser Seite / Seite empfehlen

Das Wetter in ...